Skip Navigation LinksHome page > Tools > METAR decoder Skip Navigation Links

METAR decoder

Settings

METAR

Chicago O'Hare Intl, Chicago

For information only: do not use for flight planning or navigation.
Latest weather
Observation time Saturday, October 25, 2014 1:51 AM CDT
Local time Saturday, October 25, 2014 1:58 AM CDT
Flight conditions Visual Meteorological Conditions
Winds
Wind direction Southwest (220°)
Wind speed 6 mph
Visibility 10 mi.
Sky condition
Ceiling unlimited
Cloud layer few clouds 3,900 ft.
Temperature 57°F
Dewpoint 50°F
Altimeter 29.89 in.Hg
Derived measurements
Relative humidity 77%
Density altitude 747 ft.
Sea-level pressure 29.89 in.Hg
Remarks
Automated weather observing station with precipitation discriminator.
METAR KORD 250651Z 22005KT 10SM FEW039 14/10 A2989 RMK AO2 SLP121 T01390100

InnerDrive.Weather 4.0.5399.0 Release CLR 4.0.30319.34014
Copyright ©2014 Inner Drive Technology. All rights reserved. Portions Copyright ©1986-2014 David Braverman.

Find weather

Site navigation


Skip Navigation Links

Place info

Page info

PayPal - The safer, easier way to pay online!

Return home.

Copyright ©2014 Inner Drive Technology. Purveyors of fine, hand-crafted computer software. Page printed 2014-10-25T06:58:23 UTC.